Alba, Illinois
Current Conditions -  °F | °C
As of 2:52 PM on Thursday 18 Dec 2014 (Local Time) from KMLI Reporting Station
Few Clouds Few Clouds  
Wind Chill: -5°   Ceiling: Unl
Heat Index: -2°   Visibility: 10mi
Dew Point: -9°   Wind: 5mph
Humidity: 58%   Direction: 330°NNW
Pressure: 30.25"   Gusts: NA
Location:  41.4097°N, 90.0293°W
Report Text: KMLI 182052Z 33004KT 10SM FEW100 M02/M09 A3025 RMK AO2 SLP251 T10171089 55013
Loading
Personal Weather Stations






























Interactive Weather Map New forecast layout! Learn more

10-Day Weather Forecast

Advertisements
Track Severe Weather on mobile